createdAt,value
2023-05-21T00:02:22.244Z,98268.63
2023-05-21T00:04:48.837Z,98262.16
2023-05-21T00:07:15.517Z,98254.06
2023-05-21T00:09:42.048Z,98245.00
2023-05-21T00:12:09.638Z,98246.66
2023-05-21T00:14:36.479Z,98244.63
2023-05-21T00:17:03.071Z,98249.47
2023-05-21T00:19:29.861Z,98247.56
2023-05-21T00:21:57.637Z,98243.63
2023-05-21T00:24:24.186Z,98242.09
2023-05-21T00:26:50.933Z,98225.81
2023-05-21T00:29:17.441Z,98243.50
2023-05-21T00:31:44.180Z,98233.97
2023-05-21T00:34:10.907Z,98234.72
2023-05-21T00:36:38.024Z,98228.78
2023-05-21T00:39:04.679Z,98238.56
2023-05-21T00:41:31.317Z,98230.28
2023-05-21T00:44:00.278Z,98226.97
2023-05-21T00:46:28.532Z,98225.94
2023-05-21T00:48:57.987Z,98234.47
2023-05-21T00:51:25.815Z,98227.91
2023-05-21T00:53:52.933Z,98227.25
2023-05-21T00:56:22.680Z,98220.00
2023-05-21T00:58:51.858Z,98223.13
2023-05-21T01:01:19.386Z,98212.34
2023-05-21T01:03:48.651Z,98215.84
2023-05-21T01:06:15.980Z,98223.88
2023-05-21T01:08:42.522Z,98218.84
2023-05-21T01:11:09.949Z,98219.72
2023-05-21T01:13:40.138Z,98214.09
2023-05-21T01:16:08.829Z,98218.16
2023-05-21T01:18:37.511Z,98211.22
2023-05-21T01:21:05.041Z,98203.59
2023-05-21T01:23:31.933Z,98204.59
2023-05-21T01:25:58.462Z,98200.81
2023-05-21T01:28:25.008Z,98198.16
2023-05-21T01:30:51.877Z,98190.09
2023-05-21T01:33:26.014Z,98193.97
2023-05-21T01:36:09.381Z,98178.91
2023-05-21T01:38:43.644Z,98192.38
2023-05-21T01:41:16.598Z,98184.75
2023-05-21T01:43:46.251Z,98180.78
2023-05-21T01:46:17.074Z,98175.53
2023-05-21T01:48:44.922Z,98178.00
2023-05-21T01:51:13.272Z,98176.97
2023-05-21T01:53:41.633Z,98186.09
2023-05-21T01:56:08.656Z,98180.81
2023-05-21T01:58:36.196Z,98179.97
2023-05-21T02:01:03.898Z,98172.91
2023-05-21T02:03:31.656Z,98179.66
2023-05-21T02:05:58.757Z,98189.25
2023-05-21T02:08:25.700Z,98169.88
2023-05-21T02:10:53.155Z,98176.69
2023-05-21T02:13:21.959Z,98175.56
2023-05-21T02:15:51.877Z,98174.88
2023-05-21T02:18:18.705Z,98179.84
2023-05-21T02:20:45.665Z,98178.91
2023-05-21T02:23:12.664Z,98173.19
2023-05-21T02:25:39.899Z,98168.66
2023-05-21T02:28:07.839Z,98173.72
2023-05-21T02:30:34.942Z,98174.38
2023-05-21T02:33:03.209Z,98175.41
2023-05-21T02:35:30.010Z,98176.31
2023-05-21T02:37:59.421Z,98168.78
2023-05-21T02:40:26.431Z,98171.88
2023-05-21T02:42:53.572Z,98170.03
2023-05-21T02:45:21.963Z,98164.28
2023-05-21T02:47:49.210Z,98164.28
2023-05-21T02:50:18.857Z,98158.44
2023-05-21T02:52:52.525Z,98157.38
2023-05-21T02:55:20.059Z,98150.50
2023-05-21T02:57:47.586Z,98150.72
2023-05-21T03:00:14.793Z,98154.13
2023-05-21T03:02:43.497Z,98155.56
2023-05-21T03:05:11.110Z,98161.22
2023-05-21T03:07:38.473Z,98158.00
2023-05-21T03:10:05.929Z,98157.28
2023-05-21T03:12:33.304Z,98153.38
2023-05-21T03:15:00.924Z,98145.94
2023-05-21T03:17:28.259Z,98143.94
2023-05-21T03:19:55.122Z,98145.59
2023-05-21T03:22:22.662Z,98142.88
2023-05-21T03:24:49.843Z,98146.19
2023-05-21T03:27:18.170Z,98144.25
2023-05-21T03:29:46.611Z,98151.00
2023-05-21T03:32:14.425Z,98145.56
2023-05-21T03:34:42.716Z,98158.22
2023-05-21T03:37:09.742Z,98163.94
2023-05-21T03:39:36.994Z,98156.41
2023-05-21T03:42:04.283Z,98156.81
2023-05-21T03:44:48.780Z,98148.81
2023-05-21T03:47:30.799Z,98152.91
2023-05-21T03:49:58.822Z,98147.03
2023-05-21T03:52:25.744Z,98143.53
2023-05-21T03:54:52.942Z,98152.81
2023-05-21T03:57:19.808Z,98159.13
2023-05-21T03:59:48.022Z,98160.31
2023-05-21T04:02:15.544Z,98151.66
2023-05-21T04:04:43.996Z,98157.38
2023-05-21T04:07:14.814Z,98155.03
2023-05-21T04:09:42.175Z,98150.47
2023-05-21T04:12:09.080Z,98154.16
2023-05-21T04:14:37.639Z,98151.59
2023-05-21T04:17:05.485Z,98152.94
2023-05-21T04:19:33.448Z,98156.78
2023-05-21T04:22:01.221Z,98153.13
2023-05-21T04:24:28.210Z,98154.47
2023-05-21T04:27:17.989Z,98159.13
2023-05-21T04:29:45.108Z,98157.09
2023-05-21T04:32:11.678Z,98163.00
2023-05-21T04:34:39.615Z,98165.28
2023-05-21T04:37:06.878Z,98167.97
2023-05-21T04:39:34.732Z,98162.38
2023-05-21T04:42:02.088Z,98165.59
2023-05-21T04:44:29.554Z,98171.88
2023-05-21T04:46:58.732Z,98170.69
2023-05-21T04:49:25.607Z,98166.47
2023-05-21T04:51:52.143Z,98172.34
2023-05-21T04:54:18.716Z,98169.41
2023-05-21T04:56:45.253Z,98164.59
2023-05-21T04:59:11.787Z,98168.59
2023-05-21T05:01:38.598Z,98168.19
2023-05-21T05:04:05.911Z,98171.69
2023-05-21T05:06:32.685Z,98172.59
2023-05-21T05:08:59.335Z,98169.75
2023-05-21T05:11:26.584Z,98170.47
2023-05-21T05:13:53.217Z,98178.69
2023-05-21T05:16:25.041Z,98164.28
2023-05-21T05:18:52.729Z,98179.19
2023-05-21T05:21:21.193Z,98172.00
2023-05-21T05:23:47.795Z,98172.78
2023-05-21T05:26:14.391Z,98172.75
2023-05-21T05:28:40.936Z,98175.53
2023-05-21T05:31:07.516Z,98175.81
2023-05-21T05:33:34.308Z,98167.84
2023-05-21T05:36:00.915Z,98171.56
2023-05-21T05:38:27.985Z,98162.66
2023-05-21T05:40:54.542Z,98162.50
2023-05-21T05:43:21.473Z,98162.72
2023-05-21T05:45:48.787Z,98166.34
2023-05-21T05:48:16.751Z,98161.47
2023-05-21T05:50:44.951Z,98157.88
2023-05-21T05:53:13.303Z,98158.13
2023-05-21T05:55:40.588Z,98152.91
2023-05-21T05:58:07.398Z,98161.03
2023-05-21T06:00:46.077Z,98157.16
2023-05-21T06:03:13.265Z,98158.56
2023-05-21T06:05:41.637Z,98164.53
2023-05-21T06:08:08.188Z,98169.34
2023-05-21T06:10:34.761Z,98156.97
2023-05-21T06:13:01.268Z,98171.00
2023-05-21T06:15:27.784Z,98168.69
2023-05-21T06:17:54.361Z,98166.31
2023-05-21T06:20:20.938Z,98171.53
2023-05-21T06:22:47.570Z,98166.44
2023-05-21T06:25:14.584Z,98163.53
2023-05-21T06:27:41.237Z,98162.91
2023-05-21T06:30:15.660Z,98161.00
2023-05-21T06:32:43.491Z,98158.94
2023-05-21T06:35:10.165Z,98164.34
2023-05-21T06:37:36.745Z,98154.09
2023-05-21T06:40:03.839Z,98158.13
2023-05-21T06:42:31.319Z,98162.03
2023-05-21T06:45:23.907Z,98159.25
2023-05-21T06:47:53.536Z,98152.69
2023-05-21T06:50:20.493Z,98151.88
2023-05-21T06:52:47.052Z,98155.75
2023-05-21T06:55:14.047Z,98160.78
2023-05-21T06:57:59.036Z,98163.97
2023-05-21T07:00:25.891Z,98158.84
2023-05-21T07:02:53.368Z,98160.84
2023-05-21T07:05:20.243Z,98168.84
2023-05-21T07:07:46.737Z,98165.25
2023-05-21T07:10:13.229Z,98171.72
2023-05-21T07:12:41.249Z,98165.97
2023-05-21T07:15:09.145Z,98164.81
2023-05-21T07:17:35.804Z,98161.97
2023-05-21T07:20:02.700Z,98161.72
2023-05-21T07:22:30.139Z,98157.63
2023-05-21T07:24:56.647Z,98162.03
2023-05-21T07:27:25.752Z,98155.13
2023-05-21T07:29:53.732Z,98159.41
2023-05-21T07:32:21.398Z,98157.16
2023-05-21T07:34:48.410Z,98162.66
2023-05-21T07:37:14.960Z,98164.84
2023-05-21T07:39:41.473Z,98162.47
2023-05-21T07:42:08.953Z,98160.97
2023-05-21T07:44:35.489Z,98160.06
2023-05-21T07:47:02.378Z,98152.38
2023-05-21T07:49:28.888Z,98150.75
2023-05-21T07:51:55.656Z,98148.91
2023-05-21T07:54:22.360Z,98144.34
2023-05-21T07:56:49.482Z,98157.53
2023-05-21T07:59:31.766Z,98152.22
2023-05-21T08:01:58.353Z,98148.56
2023-05-21T08:04:25.071Z,98150.41
2023-05-21T08:06:51.973Z,98156.75
2023-05-21T08:09:19.338Z,98159.19
2023-05-21T08:11:46.587Z,98152.41
2023-05-21T08:14:13.174Z,98146.75
2023-05-21T08:16:39.873Z,98149.19
2023-05-21T08:19:06.572Z,98141.06
2023-05-21T08:21:34.028Z,98150.66
2023-05-21T08:24:01.268Z,98140.53
2023-05-21T08:26:27.911Z,98140.84
2023-05-21T08:28:54.489Z,98143.25
2023-05-21T08:31:21.439Z,98146.00
2023-05-21T08:33:52.610Z,98139.22
2023-05-21T08:36:24.831Z,98135.00
2023-05-21T08:38:56.307Z,98137.75
2023-05-21T08:41:35.831Z,98143.34
2023-05-21T08:44:02.766Z,98145.28
2023-05-21T08:46:34.657Z,98140.44
2023-05-21T08:49:02.799Z,98140.97
2023-05-21T08:51:31.078Z,98139.91
2023-05-21T08:53:59.599Z,98137.75
2023-05-21T08:56:27.214Z,98144.78
2023-05-21T08:58:57.271Z,98140.47
2023-05-21T09:01:27.910Z,98145.31
2023-05-21T09:04:19.643Z,98144.75
2023-05-21T09:06:49.296Z,98147.47
2023-05-21T09:09:31.811Z,98140.19
2023-05-21T09:11:58.401Z,98138.69
2023-05-21T09:14:26.391Z,98148.88
2023-05-21T09:17:01.328Z,98132.50
2023-05-21T09:19:30.179Z,98130.09
2023-05-21T09:22:04.808Z,98132.50
2023-05-21T09:24:35.812Z,98130.09
2023-05-21T09:27:06.363Z,98137.34
2023-05-21T09:29:34.393Z,98133.31
2023-05-21T09:32:06.913Z,98139.22
2023-05-21T09:34:37.032Z,98130.34
2023-05-21T09:37:06.469Z,98130.59
2023-05-21T09:39:35.755Z,98128.44
2023-05-21T09:42:04.178Z,98133.28
2023-05-21T09:44:32.399Z,98138.63
2023-05-21T09:46:59.583Z,98130.59
2023-05-21T09:49:26.747Z,98133.56
2023-05-21T09:51:58.080Z,98128.69
2023-05-21T09:54:26.038Z,98135.63
2023-05-21T09:56:53.515Z,98136.97
2023-05-21T09:59:20.907Z,98132.91
2023-05-21T10:01:51.505Z,98133.19
2023-05-21T10:04:18.797Z,98138.78
2023-05-21T10:06:47.802Z,98137.44
2023-05-21T10:09:15.687Z,98129.41
2023-05-21T10:11:44.689Z,98134.75
2023-05-21T10:14:22.378Z,98137.09
2023-05-21T10:16:50.063Z,98140.44
2023-05-21T10:19:17.079Z,98130.44
2023-05-21T10:21:44.876Z,98140.94
2023-05-21T10:24:11.877Z,98136.19
2023-05-21T10:26:39.536Z,98134.50
2023-05-21T10:29:07.852Z,98125.97
2023-05-21T10:31:35.971Z,98126.78
2023-05-21T10:34:06.017Z,98123.41
2023-05-21T10:36:34.091Z,98123.56
2023-05-21T10:39:01.885Z,98124.53
2023-05-21T10:41:36.059Z,98129.19
2023-05-21T10:45:04.223Z,98123.81
2023-05-21T10:47:45.936Z,98122.13
2023-05-21T10:50:40.806Z,98124.28
2023-05-21T10:53:34.075Z,98129.47
2023-05-21T10:56:28.657Z,98119.00
2023-05-21T10:59:07.892Z,98124.47
2023-05-21T11:01:37.587Z,98125.38
2023-05-21T11:04:06.032Z,98131.75
2023-05-21T11:06:32.820Z,98128.34
2023-05-21T11:09:11.840Z,98120.59
2023-05-21T11:11:48.409Z,98122.06
2023-05-21T11:14:40.598Z,98123.41
2023-05-21T11:17:16.426Z,98119.66
2023-05-21T11:19:47.066Z,98123.75
2023-05-21T11:22:26.370Z,98121.84
2023-05-21T11:24:54.870Z,98115.94
2023-05-21T11:27:32.374Z,98121.44
2023-05-21T11:29:59.519Z,98118.47
2023-05-21T11:32:26.145Z,98118.13
2023-05-21T11:34:52.724Z,98120.06
2023-05-21T11:37:20.779Z,98114.69
2023-05-21T11:39:48.415Z,98107.34
2023-05-21T11:42:38.739Z,98111.94
2023-05-21T11:45:05.950Z,98106.41
2023-05-21T11:47:32.933Z,98103.09
2023-05-21T11:50:01.860Z,98103.25
2023-05-21T11:52:30.294Z,98105.38
2023-05-21T11:54:58.158Z,98102.50
2023-05-21T11:57:30.532Z,98106.03
2023-05-21T11:59:58.570Z,98098.94
2023-05-21T12:02:29.297Z,98102.84
2023-05-21T12:05:00.213Z,98092.38
2023-05-21T12:07:31.471Z,98105.00
2023-05-21T12:09:58.469Z,98106.41
2023-05-21T12:12:27.232Z,98101.53
2023-05-21T12:14:58.653Z,98102.00
2023-05-21T12:17:31.221Z,98102.72
2023-05-21T12:19:57.915Z,98108.31
2023-05-21T12:22:25.324Z,98096.94
2023-05-21T12:24:53.771Z,98095.44
2023-05-21T12:27:22.153Z,98097.50
2023-05-21T12:29:52.990Z,98090.06
2023-05-21T12:32:21.172Z,98094.41
2023-05-21T12:34:53.206Z,98094.72
2023-05-21T12:37:25.891Z,98099.09
2023-05-21T12:39:54.328Z,98092.19
2023-05-21T12:42:36.899Z,98098.22
2023-05-21T12:45:07.863Z,98088.09
2023-05-21T12:47:35.088Z,98092.94
2023-05-21T12:50:03.005Z,98090.59
2023-05-21T12:52:33.411Z,98095.88
2023-05-21T12:55:00.048Z,98089.53
2023-05-21T12:57:28.523Z,98094.34
2023-05-21T12:59:59.580Z,98093.69
2023-05-21T13:02:31.741Z,98094.25
2023-05-21T13:04:59.256Z,98092.38
2023-05-21T13:07:27.154Z,98089.22
2023-05-21T13:09:54.258Z,98087.03
2023-05-21T13:12:22.702Z,98090.84
2023-05-21T13:14:54.209Z,98091.00
2023-05-21T13:17:21.972Z,98078.84
2023-05-21T13:20:13.694Z,98087.78
2023-05-21T13:22:42.815Z,98091.44
2023-05-21T13:27:43.077Z,98085.84
2023-05-21T13:30:11.630Z,98087.03
2023-05-21T13:32:39.473Z,98083.06
2023-05-21T13:35:06.476Z,98084.44
2023-05-21T13:37:36.112Z,98082.16
2023-05-21T13:40:04.243Z,98082.38
2023-05-21T13:42:30.880Z,98081.53
2023-05-21T13:44:57.711Z,98083.84
2023-05-21T13:47:24.741Z,98076.06
2023-05-21T13:49:51.691Z,98080.94
2023-05-21T13:52:21.303Z,98080.41
2023-05-21T13:54:48.252Z,98086.19
2023-05-21T13:57:15.489Z,98073.97
2023-05-21T13:59:42.296Z,98077.25
2023-05-21T14:02:10.463Z,98080.25
2023-05-21T14:04:39.280Z,98064.97
2023-05-21T14:07:06.986Z,98077.41
2023-05-21T14:09:33.987Z,98087.84
2023-05-21T14:12:01.437Z,98084.00
2023-05-21T14:14:28.111Z,98077.13
2023-05-21T14:16:54.766Z,98077.53
2023-05-21T14:19:21.605Z,98070.25
2023-05-21T14:21:48.338Z,98076.50
2023-05-21T14:24:14.830Z,98073.19
2023-05-21T14:26:41.514Z,98079.03
2023-05-21T14:29:08.340Z,98068.31
2023-05-21T14:31:35.049Z,98068.78
2023-05-21T14:34:02.952Z,98072.09
2023-05-21T14:36:29.760Z,98067.63
2023-05-21T14:38:56.379Z,98074.00
2023-05-21T14:41:26.916Z,98067.13
2023-05-21T14:43:53.793Z,98065.38
2023-05-21T14:46:20.773Z,98057.56
2023-05-21T14:48:47.402Z,98066.75
2023-05-21T14:51:14.483Z,98062.03
2023-05-21T14:53:41.194Z,98068.44
2023-05-21T14:56:07.948Z,98058.09
2023-05-21T14:58:34.570Z,98064.03
2023-05-21T15:01:02.263Z,98053.66
2023-05-21T15:03:28.904Z,98058.97
2023-05-21T15:05:55.476Z,98058.78
2023-05-21T15:08:22.656Z,98052.72
2023-05-21T15:10:49.209Z,98050.25
2023-05-21T15:13:15.954Z,98045.47
2023-05-21T15:15:42.541Z,98042.25
2023-05-21T15:18:09.202Z,98041.50
2023-05-21T15:20:35.757Z,98045.59
2023-05-21T15:25:31.753Z,98046.50
2023-05-21T15:27:58.267Z,98044.81
2023-05-21T15:30:27.187Z,98040.34
2023-05-21T15:32:54.014Z,98041.13
2023-05-21T15:35:20.742Z,98043.25
2023-05-21T15:37:47.416Z,98045.16
2023-05-21T15:40:13.955Z,98035.97
2023-05-21T15:42:40.719Z,98039.38
2023-05-21T15:45:07.764Z,98049.44
2023-05-21T15:47:34.373Z,98040.47
2023-05-21T15:50:01.167Z,98036.59
2023-05-21T15:52:27.848Z,98055.03
2023-05-21T15:54:54.747Z,98044.88
2023-05-21T15:57:21.274Z,98044.38
2023-05-21T15:59:47.841Z,98047.44
2023-05-21T16:02:14.346Z,98043.72
2023-05-21T16:04:40.866Z,98044.16
2023-05-21T16:07:07.413Z,98046.47
2023-05-21T16:09:33.953Z,98047.06
2023-05-21T16:12:00.837Z,98048.72
2023-05-21T16:14:29.254Z,98042.88
2023-05-21T16:16:58.195Z,98053.94
2023-05-21T16:19:24.821Z,98050.81
2023-05-21T16:21:51.431Z,98049.16
2023-05-21T16:24:17.952Z,98048.88
2023-05-21T16:26:45.944Z,98058.00
2023-05-21T16:29:12.483Z,98047.06
2023-05-21T16:31:39.018Z,98048.72
2023-05-21T16:34:05.577Z,98046.88
2023-05-21T16:36:32.306Z,98050.47
2023-05-21T16:38:58.816Z,98038.03
2023-05-21T16:41:25.357Z,98035.31
2023-05-21T16:43:54.239Z,98039.69
2023-05-21T16:46:21.120Z,98039.22
2023-05-21T16:48:47.676Z,98031.56
2023-05-21T16:51:14.213Z,98036.56
2023-05-21T16:53:40.891Z,98043.66
2023-05-21T16:56:07.435Z,98040.41
2023-05-21T16:58:36.066Z,98032.59
2023-05-21T17:01:02.663Z,98037.56
2023-05-21T17:03:31.858Z,98037.22
2023-05-21T17:05:58.731Z,98033.94
2023-05-21T17:08:25.477Z,98032.25
2023-05-21T17:10:52.252Z,98028.38
2023-05-21T17:13:22.797Z,98037.78
2023-05-21T17:15:51.380Z,98032.75
2023-05-21T17:18:17.973Z,98032.56
2023-05-21T17:20:44.683Z,98030.00
2023-05-21T17:23:11.873Z,98030.97
2023-05-21T17:25:39.184Z,98029.91
2023-05-21T17:28:06.138Z,98029.00
2023-05-21T17:30:32.695Z,98035.09
2023-05-21T17:33:01.737Z,98034.53
2023-05-21T17:35:28.369Z,98038.06
2023-05-21T17:37:55.082Z,98043.50
2023-05-21T17:40:24.192Z,98036.44
2023-05-21T17:42:52.021Z,98043.59
2023-05-21T17:45:18.707Z,98045.56
2023-05-21T17:47:45.266Z,98043.13
2023-05-21T17:50:11.829Z,98050.63
2023-05-21T17:52:38.332Z,98057.09
2023-05-21T17:55:05.367Z,98044.75
2023-05-21T17:57:31.913Z,98043.19
2023-05-21T17:59:58.490Z,98049.22
2023-05-21T18:02:25.984Z,98044.59
2023-05-21T18:04:52.598Z,98042.72
2023-05-21T18:07:19.114Z,98051.59
2023-05-21T18:09:45.616Z,98044.91
2023-05-21T18:12:12.188Z,98047.09
2023-05-21T18:14:38.693Z,98055.69
2023-05-21T18:17:05.918Z,98051.97
2023-05-21T18:19:32.723Z,98046.84
2023-05-21T18:21:59.318Z,98052.88
2023-05-21T18:24:25.891Z,98062.00
2023-05-21T18:26:52.494Z,98057.69
2023-05-21T18:29:19.002Z,98059.03
2023-05-21T18:31:45.767Z,98060.59
2023-05-21T18:34:12.380Z,98052.00
2023-05-21T18:36:39.060Z,98056.03
2023-05-21T18:39:07.050Z,98054.91
2023-05-21T18:41:33.951Z,98056.97
2023-05-21T18:44:03.681Z,98055.53
2023-05-21T18:46:31.627Z,98054.50
2023-05-21T18:48:59.701Z,98055.75
2023-05-21T18:51:26.509Z,98058.88
2023-05-21T18:53:53.145Z,98059.03
2023-05-21T18:56:19.709Z,98054.13
2023-05-21T18:58:47.481Z,98059.63
2023-05-21T19:01:14.118Z,98066.50
2023-05-21T19:03:40.727Z,98068.00
2023-05-21T19:06:08.283Z,98066.41
2023-05-21T19:08:34.797Z,98065.00
2023-05-21T19:11:01.319Z,98068.47
2023-05-21T19:13:27.918Z,98075.03
2023-05-21T19:15:54.558Z,98073.00
2023-05-21T19:18:21.141Z,98074.88
2023-05-21T19:20:47.643Z,98072.13
2023-05-21T19:23:14.389Z,98071.69
2023-05-21T19:25:41.501Z,98079.44
2023-05-21T19:28:07.999Z,98083.16
2023-05-21T19:30:36.367Z,98075.19
2023-05-21T19:33:03.436Z,98071.78
2023-05-21T19:35:30.326Z,98081.72
2023-05-21T19:38:00.607Z,98078.50
2023-05-21T19:40:28.273Z,98086.69
2023-05-21T19:42:54.821Z,98087.13
2023-05-21T19:45:21.649Z,98091.28
2023-05-21T19:47:48.539Z,98091.03
2023-05-21T19:50:15.109Z,98098.16
2023-05-21T19:52:41.616Z,98099.47
2023-05-21T19:55:09.913Z,98094.63
2023-05-21T19:57:37.115Z,98096.28
2023-05-21T20:00:05.343Z,98099.59
2023-05-21T20:02:39.013Z,98094.31
2023-05-21T20:05:06.126Z,98095.72
2023-05-21T20:07:32.806Z,98107.22
2023-05-21T20:09:59.396Z,98097.75
2023-05-21T20:12:26.014Z,98100.78
2023-05-21T20:14:54.156Z,98104.84
2023-05-21T20:17:20.765Z,98103.44
2023-05-21T20:19:48.043Z,98106.91
2023-05-21T20:22:18.071Z,98103.91
2023-05-21T20:24:44.569Z,98104.00
2023-05-21T20:27:11.201Z,98102.53
2023-05-21T20:29:37.715Z,98110.28
2023-05-21T20:32:04.506Z,98115.03
2023-05-21T20:34:31.896Z,98113.66
2023-05-21T20:36:58.470Z,98111.06
2023-05-21T20:39:27.634Z,98115.00
2023-05-21T20:41:55.098Z,98109.47
2023-05-21T20:44:22.408Z,98120.84
2023-05-21T20:46:49.212Z,98111.94
2023-05-21T20:49:17.610Z,98118.09
2023-05-21T20:51:44.419Z,98116.72
2023-05-21T20:54:11.445Z,98113.31
2023-05-21T20:56:42.595Z,98116.13
2023-05-21T20:59:11.152Z,98115.78
2023-05-21T21:01:39.154Z,98120.88
2023-05-21T21:04:06.067Z,98123.28
2023-05-21T21:06:33.819Z,98124.06
2023-05-21T21:09:00.332Z,98128.97
2023-05-21T21:11:27.107Z,98131.00
2023-05-21T21:13:53.641Z,98134.47
2023-05-21T21:16:20.585Z,98129.59
2023-05-21T21:18:47.270Z,98137.78
2023-05-21T21:21:14.006Z,98136.53
2023-05-21T21:23:40.676Z,98135.59
2023-05-21T21:26:07.233Z,98127.97
2023-05-21T21:28:34.006Z,98138.38
2023-05-21T21:31:00.777Z,98132.25
2023-05-21T21:33:28.364Z,98131.78
2023-05-21T21:35:55.166Z,98134.91
2023-05-21T21:38:22.009Z,98125.56
2023-05-21T21:40:48.648Z,98134.00
2023-05-21T21:43:15.256Z,98123.00
2023-05-21T21:45:41.802Z,98135.25
2023-05-21T21:48:08.521Z,98120.00
2023-05-21T21:50:35.043Z,98128.31
2023-05-21T21:53:03.475Z,98126.38
2023-05-21T21:55:30.064Z,98129.94
2023-05-21T21:57:56.640Z,98130.97
2023-05-21T22:00:26.559Z,98128.75
2023-05-21T22:02:53.797Z,98132.25
2023-05-21T22:05:20.883Z,98132.56
2023-05-21T22:07:47.838Z,98127.09
2023-05-21T22:10:16.067Z,98126.53
2023-05-21T22:12:43.963Z,98122.47
2023-05-21T22:15:24.970Z,98128.59
2023-05-21T22:17:51.983Z,98128.56
2023-05-21T22:20:18.677Z,98128.41
2023-05-21T22:22:46.040Z,98121.25
2023-05-21T22:25:12.625Z,98123.88
2023-05-21T22:27:39.173Z,98125.44
2023-05-21T22:30:06.415Z,98130.69
2023-05-21T22:32:32.953Z,98120.19
2023-05-21T22:34:59.508Z,98127.19
2023-05-21T22:37:26.215Z,98128.97
2023-05-21T22:39:52.924Z,98135.25
2023-05-21T22:42:19.653Z,98133.53
2023-05-21T22:44:46.443Z,98135.19
2023-05-21T22:47:13.957Z,98137.84
2023-05-21T22:49:40.674Z,98134.69
2023-05-21T22:52:09.297Z,98134.03
2023-05-21T22:54:36.131Z,98128.88
2023-05-21T22:57:03.266Z,98133.81
2023-05-21T22:59:29.789Z,98140.00
2023-05-21T23:01:56.382Z,98139.63
2023-05-21T23:04:35.652Z,98133.81
2023-05-21T23:07:06.676Z,98141.28
2023-05-21T23:09:33.295Z,98140.97
2023-05-21T23:11:59.821Z,98135.50
2023-05-21T23:14:26.370Z,98143.09
2023-05-21T23:16:53.897Z,98135.09
2023-05-21T23:19:21.200Z,98139.22
2023-05-21T23:21:47.801Z,98134.47
2023-05-21T23:24:14.367Z,98140.06
2023-05-21T23:26:40.861Z,98140.72
2023-05-21T23:29:07.395Z,98146.66
2023-05-21T23:31:33.901Z,98142.06
2023-05-21T23:34:02.703Z,98140.97
2023-05-21T23:36:29.203Z,98140.00
2023-05-21T23:38:55.878Z,98140.22
2023-05-21T23:41:23.795Z,98141.59
2023-05-21T23:43:50.769Z,98134.25
2023-05-21T23:46:17.360Z,98130.56
2023-05-21T23:48:43.934Z,98133.25
2023-05-21T23:51:10.488Z,98135.47
2023-05-21T23:53:36.985Z,98132.22
2023-05-21T23:56:03.628Z,98133.13
2023-05-21T23:58:30.178Z,98130.31
